Terminal Aerodrome Forecast
Issued by NWS

Home | Current Version | Previous Version | Text Only | Print | Product List | Glossary On
Versions: 1 2 3 4 5 6 7 8 9 10 11 12 13 14 15
000
FTUS43 KMQT 221405 AAA
TAFSAW
TAF AMD
KSAW 221405Z 2214/2312 23009KT P6SM BKN035
     FM221900 27011KT P6SM BKN040
     FM222100 27006KT P6SM VCSH BKN060
     FM230400 23003KT P6SM BKN120=

USA.gov is the U.S. government's official web portal to all federal, state and local government web resources and services.